createdAt,value
2017-05-28T13:51:35.119Z,4816
2017-05-28T13:52:35.383Z,4576
2017-05-28T13:53:35.768Z,4488
2017-05-28T13:54:35.399Z,4420
2017-05-28T13:55:35.438Z,4220
2017-05-28T13:56:35.090Z,3816
2017-05-28T13:57:35.728Z,3988
2017-05-28T13:58:35.435Z,4068
2017-05-28T13:59:35.752Z,4060
2017-05-28T14:00:35.437Z,4024
2017-05-28T14:01:35.123Z,3980
2017-05-28T14:02:35.450Z,3924
2017-05-28T14:03:35.457Z,3872
2017-05-28T14:04:35.447Z,3836
2017-05-28T14:05:35.140Z,3848
2017-05-28T14:06:35.781Z,3848
2017-05-28T14:07:35.485Z,3864
2017-05-28T14:08:35.759Z,3872
2017-05-28T14:09:35.162Z,3904
2017-05-28T14:10:35.490Z,3956
2017-05-28T14:11:35.825Z,3992
2017-05-28T14:12:35.499Z,4092
2017-05-28T14:13:35.834Z,4204
2017-05-28T14:14:34.853Z,4316
2017-05-28T14:15:35.521Z,4460
2017-05-28T14:16:35.828Z,4620
2017-05-28T14:17:35.524Z,4776
2017-05-28T14:18:35.855Z,4908
2017-05-28T14:19:35.556Z,4976
2017-05-28T14:20:35.546Z,4996
2017-05-28T14:21:35.532Z,5020
2017-05-28T14:22:35.256Z,5080
2017-05-28T14:23:35.222Z,5168
2017-05-28T14:24:35.226Z,5220
2017-05-28T14:25:35.564Z,5176
2017-05-28T14:26:36.014Z,5104
2017-05-28T14:27:35.245Z,4988
2017-05-28T14:28:35.888Z,4884
2017-05-28T14:29:35.581Z,4808
2017-05-28T14:30:35.666Z,4672
2017-05-28T14:31:35.582Z,4616
2017-05-28T14:32:35.269Z,4444
2017-05-28T14:33:35.942Z,4400
2017-05-28T14:34:34.965Z,4372
2017-05-28T14:35:35.282Z,4260
2017-05-28T14:36:35.613Z,4112
2017-05-28T14:37:35.612Z,3940
2017-05-28T14:38:35.952Z,3816
2017-05-28T14:39:35.301Z,3716
2017-05-28T14:40:35.631Z,3656
2017-05-28T14:41:35.649Z,3600
2017-05-28T14:42:35.007Z,3556
2017-05-28T14:43:35.668Z,3532
2017-05-28T14:44:35.352Z,3524
2017-05-28T14:45:35.344Z,3508
2017-05-28T14:46:35.661Z,3480
2017-05-28T14:47:35.665Z,3476
2017-05-28T14:48:36.012Z,3460
2017-05-28T14:49:36.001Z,3456
2017-05-28T14:50:35.697Z,3456
2017-05-28T14:51:35.684Z,3456
2017-05-28T14:52:35.388Z,3452
2017-05-28T14:53:35.696Z,3328
2017-05-28T14:54:35.380Z,3476
2017-05-28T14:55:36.099Z,3488
2017-05-28T14:56:35.396Z,3508
2017-05-28T14:57:35.714Z,3520
2017-05-28T14:58:35.404Z,3524
2017-05-28T14:59:36.084Z,3536
2017-05-28T15:00:35.412Z,3540
2017-05-28T15:01:36.056Z,3552
2017-05-28T15:02:35.747Z,3576
2017-05-28T15:03:36.066Z,3592
2017-05-28T15:04:36.074Z,3596
2017-05-28T15:05:35.753Z,3608
2017-05-28T15:06:35.492Z,3632
2017-05-28T15:07:36.106Z,3656
2017-05-28T15:08:35.450Z,3676
2017-05-28T15:09:35.456Z,3696
2017-05-28T15:10:35.782Z,3708
2017-05-28T15:11:36.109Z,3728
2017-05-28T15:12:36.121Z,3756
2017-05-28T15:13:36.136Z,3788
2017-05-28T15:14:36.179Z,3820
2017-05-28T15:15:35.807Z,3844
2017-05-28T15:16:35.812Z,3884
2017-05-28T15:17:35.814Z,3924
2017-05-28T15:18:35.818Z,3936
2017-05-28T15:19:35.502Z,3956
2017-05-28T15:20:35.509Z,3964
2017-05-28T15:21:36.170Z,3968
2017-05-28T15:22:35.836Z,3960
2017-05-28T15:23:35.550Z,3936
2017-05-28T15:24:36.180Z,3932
2017-05-28T15:25:36.189Z,3908
2017-05-28T15:26:35.861Z,3892
2017-05-28T15:27:35.877Z,3880
2017-05-28T15:28:35.870Z,3872
2017-05-28T15:29:36.199Z,3864
2017-05-28T15:30:35.901Z,3844
2017-05-28T15:31:35.242Z,3828
2017-05-28T15:32:35.269Z,3804
2017-05-28T15:33:37.717Z,3776
2017-05-28T15:34:36.249Z,3744
2017-05-28T15:35:35.922Z,3708
2017-05-28T15:36:36.240Z,3672
2017-05-28T15:37:35.941Z,3640
2017-05-28T15:38:36.245Z,3608
2017-05-28T15:39:35.613Z,3564
2017-05-28T15:40:36.250Z,3528
2017-05-28T15:41:36.260Z,3500
2017-05-28T15:42:35.947Z,3472
2017-05-28T15:43:35.627Z,3448
2017-05-28T15:44:35.628Z,3428
2017-05-28T15:45:35.968Z,3416
2017-05-28T15:46:35.648Z,3388
2017-05-28T15:47:35.964Z,3372
2017-05-28T15:48:36.295Z,3364
2017-05-28T15:49:36.298Z,3356
2017-05-28T15:50:35.995Z,3340
2017-05-28T15:51:36.334Z,3320
2017-05-28T15:52:36.000Z,3304
2017-05-28T15:53:35.995Z,3292
2017-05-28T15:54:36.354Z,3288
2017-05-28T15:55:35.711Z,3280
2017-05-28T15:56:36.332Z,3280
2017-05-28T15:57:36.036Z,3280
2017-05-28T15:58:36.353Z,3280
2017-05-28T15:59:36.416Z,3280
2017-05-28T16:00:36.374Z,3280
2017-05-28T16:01:36.038Z,3284
2017-05-28T16:02:36.365Z,3280
2017-05-28T16:03:36.122Z,3280
2017-05-28T16:04:36.387Z,3284
2017-05-28T16:05:36.066Z,3292
2017-05-28T16:06:36.085Z,3288
2017-05-28T16:07:36.074Z,3280
2017-05-28T16:08:36.103Z,3280
2017-05-28T16:09:36.403Z,3276
2017-05-28T16:10:36.434Z,3280
2017-05-28T16:11:35.447Z,3268
2017-05-28T16:12:35.770Z,3260
2017-05-28T16:13:35.777Z,3264
2017-05-28T16:14:36.127Z,3264
2017-05-28T16:15:35.804Z,3272
2017-05-28T16:16:36.438Z,3276
2017-05-28T16:17:36.462Z,3276
2017-05-28T16:18:35.799Z,3272
2017-05-28T16:19:36.128Z,3272
2017-05-28T16:20:36.133Z,3264
2017-05-28T16:21:36.137Z,3260
2017-05-28T16:22:35.899Z,3252
2017-05-28T16:23:36.502Z,3248
2017-05-28T16:24:36.194Z,3244
2017-05-28T16:25:36.156Z,3228
2017-05-28T16:26:36.497Z,3216
2017-05-28T16:27:36.492Z,3188
2017-05-28T16:28:36.494Z,3148
2017-05-28T16:29:36.213Z,3128
2017-05-28T16:30:35.875Z,3120
2017-05-28T16:31:35.872Z,3120
2017-05-28T16:32:36.523Z,3120
2017-05-28T16:33:36.528Z,3120
2017-05-28T16:34:36.530Z,3124
2017-05-28T16:35:36.595Z,3136
2017-05-28T16:36:35.915Z,3152
2017-05-28T16:37:36.075Z,3168
2017-05-28T16:38:36.570Z,3184
2017-05-28T16:39:36.223Z,3192
2017-05-28T16:40:35.908Z,3204
2017-05-28T16:41:36.559Z,3276
2017-05-28T16:42:36.587Z,3568
2017-05-28T16:43:36.591Z,3812
2017-05-28T16:44:36.588Z,3816
2017-05-28T16:45:36.579Z,3592
2017-05-28T16:46:37.038Z,3284
2017-05-28T16:47:36.267Z,3184
2017-05-28T16:48:36.622Z,3168
2017-05-28T16:49:36.601Z,3144
2017-05-28T16:50:35.979Z,3152
2017-05-28T16:51:36.302Z,3136
2017-05-28T16:52:36.309Z,3112
2017-05-28T16:53:36.625Z,3100
2017-05-28T16:54:35.670Z,3060
2017-05-28T16:55:36.627Z,3008
2017-05-28T16:56:36.660Z,3040
2017-05-28T16:57:36.703Z,3120
2017-05-28T16:58:36.647Z,3176
2017-05-28T16:59:36.327Z,3216
2017-05-28T17:00:36.004Z,3256
2017-05-28T17:01:36.356Z,3332
2017-05-28T17:02:36.417Z,3264
2017-05-28T17:03:36.828Z,3304
2017-05-28T17:04:36.586Z,3368
2017-05-28T17:05:37.910Z,3600
2017-05-28T17:06:36.142Z,4916
2017-05-28T17:07:36.804Z,6356
2017-05-28T17:08:36.616Z,6916
2017-05-28T17:09:36.648Z,6968
2017-05-28T17:10:36.677Z,7272
2017-05-28T17:11:36.796Z,7352
2017-05-28T17:12:36.548Z,7436
2017-05-28T17:13:37.023Z,7204
2017-05-28T17:14:36.974Z,7076
2017-05-28T17:15:36.839Z,7232
2017-05-28T17:16:36.721Z,7380
2017-05-28T17:17:36.788Z,7444
2017-05-28T17:18:36.526Z,7564
2017-05-28T17:19:36.325Z,7100
2017-05-28T17:20:36.972Z,6736
2017-05-28T17:21:36.302Z,6236
2017-05-28T17:22:36.489Z,6480
2017-05-28T17:23:36.925Z,6420
2017-05-28T17:24:36.438Z,6504
2017-05-28T17:25:37.067Z,6612
2017-05-28T17:26:36.838Z,6360
2017-05-28T17:27:38.174Z,6524
2017-05-28T17:28:36.877Z,6596
2017-05-28T17:29:36.763Z,6684
2017-05-28T17:30:36.448Z,6476
2017-05-28T17:31:36.731Z,6456
2017-05-28T17:32:36.740Z,6044
2017-05-28T17:33:37.031Z,5188
2017-05-28T17:34:36.722Z,5508
2017-05-28T17:35:37.114Z,6376
2017-05-28T17:36:36.829Z,6244
2017-05-28T17:37:36.911Z,5856
2017-05-28T17:38:37.158Z,6100
2017-05-28T17:39:36.799Z,6032
2017-05-28T17:40:36.176Z,5956
2017-05-28T17:41:37.213Z,5880
2017-05-28T17:42:36.820Z,5708
2017-05-28T17:43:37.245Z,5636
2017-05-28T17:44:36.665Z,5544
2017-05-28T17:45:36.135Z,5392
2017-05-28T17:46:37.030Z,5172
2017-05-28T17:47:36.741Z,5164
2017-05-28T17:48:37.102Z,4784
2017-05-28T17:49:36.879Z,4580
2017-05-28T17:50:36.853Z,4596
2017-05-28T17:51:36.629Z,4532
2017-05-28T17:52:36.851Z,4388
2017-05-28T17:53:37.322Z,4040
2017-05-28T17:54:36.991Z,4176
2017-05-28T17:55:37.332Z,4032
2017-05-28T17:56:37.522Z,3484
2017-05-28T17:57:37.068Z,3316
2017-05-28T17:58:36.595Z,3316
2017-05-28T17:59:36.968Z,3020
2017-05-28T18:00:37.237Z,2908
2017-05-28T18:01:37.574Z,2784
2017-05-28T18:02:37.869Z,2516
2017-05-28T18:03:37.743Z,2452
2017-05-28T18:04:36.807Z,2272
2017-05-28T18:05:36.599Z,2024
2017-05-28T18:06:37.709Z,1900
2017-05-28T18:07:37.645Z,1820
2017-05-28T18:08:37.130Z,1748
2017-05-28T18:09:37.581Z,1672
2017-05-28T18:10:36.977Z,1600
2017-05-28T18:11:37.481Z,1548
2017-05-28T18:12:38.020Z,1508
2017-05-28T18:13:37.863Z,1484
2017-05-28T18:14:37.290Z,1456
2017-05-28T18:15:36.768Z,1432
2017-05-28T18:16:37.240Z,1416
2017-05-28T18:17:37.223Z,1404
2017-05-28T18:18:37.515Z,1384
2017-05-28T18:19:37.412Z,1376
2017-05-28T18:20:37.644Z,1372
2017-05-28T18:21:37.488Z,1364
2017-05-28T18:22:37.197Z,1360
2017-05-28T18:23:37.089Z,1356
2017-05-28T18:24:37.331Z,1348
2017-05-28T18:25:37.502Z,1332
2017-05-28T18:26:37.748Z,1308
2017-05-28T18:27:37.147Z,1284
2017-05-28T18:28:37.336Z,1256
2017-05-28T18:29:37.767Z,1216
2017-05-28T18:30:36.874Z,1176
2017-05-28T18:31:37.171Z,1140
2017-05-28T18:32:38.274Z,1096
2017-05-28T18:33:37.240Z,1060
2017-05-28T18:34:37.135Z,1020
2017-05-28T18:35:37.252Z,984
2017-05-28T18:36:38.230Z,940
2017-05-28T18:37:37.640Z,896
2017-05-28T18:38:36.892Z,852
2017-05-28T18:39:36.570Z,808
2017-05-28T18:40:38.249Z,764
2017-05-28T18:41:36.661Z,724
2017-05-28T18:42:37.941Z,680
2017-05-28T18:43:36.990Z,644
2017-05-28T18:44:37.315Z,604
2017-05-28T18:45:37.515Z,568
2017-05-28T18:46:36.971Z,528
2017-05-28T18:47:37.574Z,496
2017-05-28T18:48:37.032Z,460
2017-05-28T18:49:37.109Z,432
2017-05-28T18:50:36.366Z,404
2017-05-28T18:51:37.449Z,380
2017-05-28T18:52:37.123Z,356
2017-05-28T18:53:36.746Z,336
2017-05-28T18:54:37.376Z,316
2017-05-28T18:55:37.082Z,296
2017-05-28T18:56:36.816Z,276
2017-05-28T18:57:37.252Z,260
2017-05-28T18:58:37.270Z,244
2017-05-28T18:59:37.567Z,228
2017-05-28T19:00:37.589Z,212
2017-05-28T19:01:37.044Z,196
2017-05-28T19:02:37.394Z,180
2017-05-28T19:03:37.175Z,168
2017-05-28T19:04:37.378Z,156
2017-05-28T19:05:38.060Z,144
2017-05-28T19:06:36.780Z,136
2017-05-28T19:07:37.541Z,124
2017-05-28T19:08:37.774Z,116
2017-05-28T19:09:37.463Z,108
2017-05-28T19:10:38.000Z,100
2017-05-28T19:11:36.716Z,96
2017-05-28T19:12:37.764Z,88
2017-05-28T19:13:37.385Z,84
2017-05-28T19:14:37.089Z,76
2017-05-28T19:15:37.713Z,72
2017-05-28T19:16:36.732Z,68
2017-05-28T19:17:36.724Z,60
2017-05-28T19:18:37.044Z,56
2017-05-28T19:19:36.728Z,52
2017-05-28T19:20:37.043Z,44
2017-05-28T19:21:37.044Z,44
2017-05-28T19:22:36.725Z,36
2017-05-28T19:23:37.050Z,36
2017-05-28T19:24:37.052Z,28
2017-05-28T19:25:37.089Z,28
2017-05-28T19:26:37.388Z,24
2017-05-28T19:27:36.730Z,20
2017-05-28T19:28:37.050Z,20
2017-05-28T19:29:37.060Z,16
2017-05-28T19:30:37.057Z,16
2017-05-28T19:31:37.084Z,12
2017-05-28T19:32:37.388Z,8
2017-05-28T19:33:36.828Z,8
2017-05-28T19:34:37.060Z,8
2017-05-28T19:35:37.057Z,8
2017-05-28T19:36:37.412Z,8
2017-05-28T19:37:37.054Z,4
2017-05-28T19:38:37.064Z,8
2017-05-28T19:39:37.392Z,4
2017-05-28T19:40:36.739Z,4
2017-05-28T19:41:37.391Z,4
2017-05-28T19:42:37.062Z,0
2017-05-28T19:43:37.378Z,4
2017-05-28T19:44:36.752Z,4
2017-05-28T19:45:37.374Z,4
2017-05-28T19:46:37.063Z,0
2017-05-28T19:47:37.382Z,0
2017-05-28T19:48:37.424Z,0
2017-05-28T19:49:37.074Z,0
2017-05-28T19:50:37.053Z,0
2017-05-28T19:51:37.369Z,0
2017-05-28T19:52:36.741Z,0
2017-05-28T19:53:37.105Z,0
2017-05-28T19:54:36.840Z,0
2017-05-28T19:55:36.748Z,0
2017-05-28T19:56:37.048Z,0
2017-05-28T19:57:37.372Z,0
2017-05-28T19:58:36.739Z,0
2017-05-28T19:59:37.385Z,0
2017-05-28T20:00:38.665Z,0
2017-05-28T20:01:36.430Z,0
2017-05-28T20:02:37.093Z,0
2017-05-28T20:03:37.385Z,0
2017-05-28T20:04:37.535Z,0
2017-05-28T20:05:37.766Z,0
2017-05-28T20:06:37.456Z,0
2017-05-28T20:07:37.393Z,0
2017-05-28T20:08:36.746Z,0
2017-05-28T20:09:37.083Z,0
2017-05-28T20:10:36.745Z,0
2017-05-28T20:11:37.076Z,0
2017-05-28T20:12:37.349Z,0
2017-05-28T20:13:36.827Z,0
2017-05-28T20:14:37.359Z,0
2017-05-28T20:15:37.056Z,0
2017-05-28T20:16:36.717Z,0
2017-05-28T20:17:38.448Z,0
2017-05-28T20:18:37.212Z,0
2017-05-28T20:19:37.416Z,0
2017-05-28T20:20:38.198Z,0
2017-05-28T20:21:38.672Z,0
2017-05-28T20:22:37.460Z,0
2017-05-28T20:23:36.465Z,0
2017-05-28T20:24:37.040Z,0
2017-05-28T20:25:37.031Z,0
2017-05-28T20:26:37.702Z,0
2017-05-28T20:27:37.050Z,0
2017-05-28T20:28:37.372Z,0
2017-05-28T20:29:38.265Z,0
2017-05-28T20:30:37.202Z,0
2017-05-28T20:31:36.703Z,0
2017-05-28T20:32:37.344Z,0
2017-05-28T20:33:37.389Z,0
2017-05-28T20:34:37.386Z,0
2017-05-28T20:35:37.319Z,0
2017-05-28T20:36:37.918Z,0
2017-05-28T20:37:37.354Z,0
2017-05-28T20:38:37.040Z,0
2017-05-28T20:39:37.020Z,0
2017-05-28T20:40:37.342Z,0
2017-05-28T20:41:37.510Z,0
2017-05-28T20:42:37.700Z,0
2017-05-28T20:43:36.714Z,0
2017-05-28T20:44:36.373Z,0
2017-05-28T20:45:36.708Z,0
2017-05-28T20:46:38.235Z,0
2017-05-28T20:47:36.687Z,0
2017-05-28T20:48:37.355Z,0
2017-05-28T20:49:36.713Z,0
2017-05-28T20:50:37.328Z,0
2017-05-28T20:51:37.009Z,0
2017-05-28T20:52:37.331Z,0
2017-05-28T20:53:37.003Z,0
2017-05-28T20:54:37.005Z,0
2017-05-28T20:55:37.010Z,0
2017-05-28T20:56:37.335Z,0
2017-05-28T20:57:37.349Z,0
2017-05-28T20:58:37.001Z,0
2017-05-28T20:59:37.003Z,0
2017-05-28T21:00:37.329Z,0
2017-05-28T21:01:37.015Z,0
2017-05-28T21:02:36.688Z,0
2017-05-28T21:03:37.007Z,0
2017-05-28T21:04:36.688Z,0
2017-05-28T21:05:37.028Z,0
2017-05-28T21:06:36.670Z,0
2017-05-28T21:07:37.349Z,0
2017-05-28T21:08:36.680Z,0
2017-05-28T21:09:36.985Z,0
2017-05-28T21:10:37.003Z,0
2017-05-28T21:11:36.985Z,0
2017-05-28T21:12:36.994Z,0
2017-05-28T21:13:36.998Z,0
2017-05-28T21:14:36.988Z,0
2017-05-28T21:15:36.975Z,0
2017-05-28T21:16:36.990Z,0
2017-05-28T21:17:36.995Z,0
2017-05-28T21:18:37.294Z,0
2017-05-28T21:19:36.973Z,0
2017-05-28T21:20:36.990Z,0
2017-05-28T21:21:37.291Z,0
2017-05-28T21:22:37.288Z,0
2017-05-28T21:23:36.981Z,0
2017-05-28T21:24:37.009Z,0
2017-05-28T21:25:36.964Z,0
2017-05-28T21:26:36.961Z,0
2017-05-28T21:27:36.660Z,0
2017-05-28T21:28:36.655Z,0
2017-05-28T21:29:37.293Z,0
2017-05-28T21:30:36.683Z,0
2017-05-28T21:31:36.974Z,0
2017-05-28T21:32:36.323Z,0
2017-05-28T21:33:36.978Z,0
2017-05-28T21:34:37.300Z,0
2017-05-28T21:35:36.951Z,0
2017-05-28T21:36:36.645Z,0
2017-05-28T21:37:36.653Z,0
2017-05-28T21:38:36.957Z,0
2017-05-28T21:39:36.958Z,0
2017-05-28T21:40:36.945Z,0
2017-05-28T21:41:36.619Z,0
2017-05-28T21:42:36.945Z,0
2017-05-28T21:43:37.261Z,0
2017-05-28T21:44:36.614Z,0
2017-05-28T21:45:36.935Z,0
2017-05-28T21:46:37.251Z,0
2017-05-28T21:47:37.251Z,0
2017-05-28T21:48:37.290Z,0
2017-05-28T21:49:37.260Z,0
2017-05-28T21:50:36.954Z,0
2017-05-28T21:51:36.606Z,0
2017-05-28T21:52:36.938Z,0
2017-05-28T21:53:36.942Z,0
2017-05-28T21:54:37.254Z,0
2017-05-28T21:55:36.918Z,0
2017-05-28T21:56:36.929Z,0
2017-05-28T21:57:36.936Z,0
2017-05-28T21:58:36.930Z,0
2017-05-28T21:59:36.591Z,0
2017-05-28T22:00:36.320Z,0
2017-05-28T22:01:37.283Z,0
2017-05-28T22:02:37.281Z,0
2017-05-28T22:03:37.242Z,0
2017-05-28T22:04:36.920Z,0
2017-05-28T22:05:36.585Z,0
2017-05-28T22:06:36.578Z,0
2017-05-28T22:07:36.901Z,0
2017-05-28T22:08:37.228Z,0
2017-05-28T22:09:36.913Z,0
2017-05-28T22:10:37.215Z,0
2017-05-28T22:11:37.239Z,0
2017-05-28T22:12:36.925Z,0
2017-05-28T22:13:37.227Z,0
2017-05-28T22:14:36.568Z,0
2017-05-28T22:15:37.212Z,0
2017-05-28T22:16:37.219Z,0
2017-05-28T22:17:37.227Z,0
2017-05-28T22:18:37.214Z,0
2017-05-28T22:19:37.201Z,0
2017-05-28T22:20:36.879Z,0
2017-05-28T22:21:36.547Z,0
2017-05-28T22:22:36.552Z,0
2017-05-28T22:23:37.193Z,0
2017-05-28T22:24:36.565Z,0
2017-05-28T22:25:36.890Z,0
2017-05-28T22:26:36.882Z,0
2017-05-28T22:27:36.538Z,0
2017-05-28T22:28:36.870Z,0
2017-05-28T22:29:36.548Z,0
2017-05-28T22:30:37.174Z,0
2017-05-28T22:31:36.529Z,0
2017-05-28T22:32:37.637Z,0
2017-05-28T22:33:36.526Z,0
2017-05-28T22:34:37.179Z,0
2017-05-28T22:35:36.846Z,0
2017-05-28T22:36:36.885Z,0
2017-05-28T22:37:36.536Z,0
2017-05-28T22:38:37.207Z,0
2017-05-28T22:39:36.522Z,0
2017-05-28T22:40:36.873Z,0
2017-05-28T22:41:36.833Z,0
2017-05-28T22:42:36.509Z,0
2017-05-28T22:43:36.863Z,0
2017-05-28T22:44:36.825Z,0
2017-05-28T22:45:36.829Z,0
2017-05-28T22:46:36.823Z,0
2017-05-28T22:47:37.143Z,0
2017-05-28T22:48:36.888Z,0
2017-05-28T22:49:37.625Z,0
2017-05-28T22:50:37.140Z,0
2017-05-28T22:51:37.139Z,0
2017-05-28T22:52:36.824Z,0
2017-05-28T22:53:36.821Z,0
2017-05-28T22:54:36.504Z,0
2017-05-28T22:55:36.482Z,0
2017-05-28T22:56:37.172Z,0
2017-05-28T22:57:36.799Z,0
2017-05-28T22:58:36.167Z,0
2017-05-28T22:59:36.834Z,0
2017-05-28T23:00:38.263Z,0
2017-05-28T23:01:36.471Z,0
2017-05-28T23:02:36.802Z,0
2017-05-28T23:03:36.798Z,0
2017-05-28T23:04:36.782Z,0
2017-05-28T23:05:37.792Z,0
2017-05-28T23:06:38.144Z,0
2017-05-28T23:07:36.456Z,0
2017-05-28T23:08:36.776Z,0
2017-05-28T23:09:36.775Z,0
2017-05-28T23:10:36.774Z,0
2017-05-28T23:11:38.278Z,0
2017-05-28T23:12:36.460Z,0
2017-05-28T23:13:36.777Z,0
2017-05-28T23:14:36.446Z,0
2017-05-28T23:15:36.762Z,0
2017-05-28T23:16:37.451Z,0
2017-05-28T23:17:38.345Z,0
2017-05-28T23:18:36.757Z,0
2017-05-28T23:19:36.772Z,0
2017-05-28T23:20:36.429Z,0
2017-05-28T23:21:36.900Z,0
2017-05-28T23:22:37.466Z,0
2017-05-28T23:23:38.363Z,0
2017-05-28T23:24:37.064Z,0
2017-05-28T23:25:37.083Z,0
2017-05-28T23:26:37.066Z,0
2017-05-28T23:27:37.062Z,0
2017-05-28T23:28:36.730Z,0
2017-05-28T23:29:37.860Z,0
2017-05-28T23:30:37.986Z,0
2017-05-28T23:31:36.741Z,0
2017-05-28T23:32:36.402Z,0
2017-05-28T23:33:36.733Z,0
2017-05-28T23:34:36.426Z,0
2017-05-28T23:35:37.533Z,0
2017-05-28T23:36:37.726Z,0
2017-05-28T23:37:37.586Z,0
2017-05-28T23:38:36.737Z,0
2017-05-28T23:39:36.723Z,0
2017-05-28T23:40:36.740Z,0
2017-05-28T23:41:37.542Z,0
2017-05-28T23:42:37.999Z,0
2017-05-28T23:43:37.034Z,0
2017-05-28T23:44:36.704Z,0
2017-05-28T23:45:36.750Z,0
2017-05-28T23:46:36.695Z,0
2017-05-28T23:47:36.428Z,0
2017-05-28T23:48:37.511Z,0
2017-05-28T23:49:36.428Z,0
2017-05-28T23:50:37.257Z,0
2017-05-28T23:51:36.390Z,0
2017-05-28T23:52:37.796Z,0
2017-05-28T23:53:37.771Z,0
2017-05-28T23:54:36.350Z,0
2017-05-28T23:55:36.350Z,0
2017-05-28T23:56:36.028Z,0
2017-05-28T23:57:37.318Z,0
2017-05-28T23:58:37.174Z,0
2017-05-28T23:59:36.985Z,0
